sensor_id;sensor_type;location;lat;lon;timestamp;pressure;altitude;pressure_sealevel;temperature;humidity
34672;BME280;55835;52.096;21.060;2022-07-10T00:01:24;100345.13;;;23.36;48.73
34672;BME280;55835;52.096;21.060;2022-07-10T00:03:51;100346.28;;;23.33;49.00
34672;BME280;55835;52.096;21.060;2022-07-10T00:06:19;100352.31;;;23.35;49.24
34672;BME280;55835;52.096;21.060;2022-07-10T00:08:46;100344.47;;;23.34;48.65
34672;BME280;55835;52.096;21.060;2022-07-10T00:11:13;100342.28;;;23.29;49.21
34672;BME280;55835;52.096;21.060;2022-07-10T00:13:39;100343.94;;;23.30;48.86
34672;BME280;55835;52.096;21.060;2022-07-10T00:16:08;100345.63;;;23.31;49.01
34672;BME280;55835;52.096;21.060;2022-07-10T00:18:35;100339.25;;;23.32;48.86
34672;BME280;55835;52.096;21.060;2022-07-10T00:21:01;100338.56;;;23.30;49.21
34672;BME280;55835;52.096;21.060;2022-07-10T00:23:28;100332.38;;;23.30;49.14
34672;BME280;55835;52.096;21.060;2022-07-10T00:25:55;100326.19;;;23.29;49.18
34672;BME280;55835;52.096;21.060;2022-07-10T00:28:21;100323.50;;;23.29;49.28
34672;BME280;55835;52.096;21.060;2022-07-10T00:30:50;100331.56;;;23.29;49.32
34672;BME280;55835;52.096;21.060;2022-07-10T00:33:18;100320.81;;;23.29;49.19
34672;BME280;55835;52.096;21.060;2022-07-10T00:35:45;100315.78;;;23.26;48.86
34672;BME280;55835;52.096;21.060;2022-07-10T00:38:11;100306.03;;;23.25;49.10
34672;BME280;55835;52.096;21.060;2022-07-10T00:40:38;100314.97;;;23.26;48.91
34672;BME280;55835;52.096;21.060;2022-07-10T00:43:08;100316.78;;;23.25;48.92
34672;BME280;55835;52.096;21.060;2022-07-10T00:45:35;100307.72;;;23.26;49.37
34672;BME280;55835;52.096;21.060;2022-07-10T00:48:02;100311.41;;;23.25;49.04
34672;BME280;55835;52.096;21.060;2022-07-10T00:50:30;100308.06;;;23.23;49.45
34672;BME280;55835;52.096;21.060;2022-07-10T00:52:58;100308.38;;;23.28;49.21
34672;BME280;55835;52.096;21.060;2022-07-10T00:55:25;100304.38;;;23.24;49.03
34672;BME280;55835;52.096;21.060;2022-07-10T00:57:52;100301.53;;;23.26;49.09
34672;BME280;55835;52.096;21.060;2022-07-10T01:00:19;100308.72;;;23.25;49.56
34672;BME280;55835;52.096;21.060;2022-07-10T01:02:48;100305.38;;;23.23;49.31
34672;BME280;55835;52.096;21.060;2022-07-10T01:05:15;100299.19;;;23.23;49.50
34672;BME280;55835;52.096;21.060;2022-07-10T01:07:43;100303.72;;;23.22;49.17
34672;BME280;55835;52.096;21.060;2022-07-10T01:10:10;100309.28;;;23.21;49.28
34672;BME280;55835;52.096;21.060;2022-07-10T01:12:37;100295.66;;;23.22;49.51
34672;BME280;55835;52.096;21.060;2022-07-10T01:15:05;100304.56;;;23.23;49.30
34672;BME280;55835;52.096;21.060;2022-07-10T01:17:32;100298.38;;;23.22;49.50
34672;BME280;55835;52.096;21.060;2022-07-10T01:20:04;100299.38;;;23.21;49.46
34672;BME280;55835;52.096;21.060;2022-07-10T01:22:32;100295.00;;;23.20;49.14
34672;BME280;55835;52.096;21.060;2022-07-10T01:24:59;100287.97;;;23.19;49.42
34672;BME280;55835;52.096;21.060;2022-07-10T01:27:26;100292.50;;;23.18;49.34
34672;BME280;55835;52.096;21.060;2022-07-10T01:29:53;100288.97;;;23.18;49.25
34672;BME280;55835;52.096;21.060;2022-07-10T01:32:20;100290.66;;;23.19;49.45
34672;BME280;55835;52.096;21.060;2022-07-10T01:34:47;100280.91;;;23.18;49.44
34672;BME280;55835;52.096;21.060;2022-07-10T01:37:13;100286.28;;;23.18;49.29
34672;BME280;55835;52.096;21.060;2022-07-10T01:39:42;100276.56;;;23.17;49.66
34672;BME280;55835;52.096;21.060;2022-07-10T01:42:08;100282.59;;;23.19;49.48
34672;BME280;55835;52.096;21.060;2022-07-10T01:44:35;100282.13;;;23.15;49.33
34672;BME280;55835;52.096;21.060;2022-07-10T01:47:02;100275.88;;;23.15;49.52
34672;BME280;55835;52.096;21.060;2022-07-10T01:49:29;100267.84;;;23.15;49.63
34672;BME280;55835;52.096;21.060;2022-07-10T01:51:56;100259.78;;;23.15;49.75
34672;BME280;55835;52.096;21.060;2022-07-10T01:54:23;100263.50;;;23.14;49.74
34672;BME280;55835;52.096;21.060;2022-07-10T01:56:51;100261.63;;;23.14;49.57
34672;BME280;55835;52.096;21.060;2022-07-10T01:59:18;100262.28;;;23.16;49.76
34672;BME280;55835;52.096;21.060;2022-07-10T02:01:45;100251.72;;;23.15;49.71
34672;BME280;55835;52.096;21.060;2022-07-10T02:04:11;100255.25;;;23.15;49.42
34672;BME280;55835;52.096;21.060;2022-07-10T02:06:55;100258.94;;;23.14;49.61
34672;BME280;55835;52.096;21.060;2022-07-10T02:09:22;100255.63;;;23.12;49.61
34672;BME280;55835;52.096;21.060;2022-07-10T02:11:50;100251.06;;;23.13;49.54
34672;BME280;55835;52.096;21.060;2022-07-10T02:14:17;100240.16;;;23.14;49.59
34672;BME280;55835;52.096;21.060;2022-07-10T02:16:44;100259.97;;;23.13;49.71
34672;BME280;55835;52.096;21.060;2022-07-10T02:19:11;100256.63;;;23.11;49.71
34672;BME280;55835;52.096;21.060;2022-07-10T02:21:38;100262.66;;;23.13;49.30
34672;BME280;55835;52.096;21.060;2022-07-10T02:24:04;100251.06;;;23.13;49.49
34672;BME280;55835;52.096;21.060;2022-07-10T02:26:31;100253.75;;;23.13;49.40
34672;BME280;55835;52.096;21.060;2022-07-10T02:28:59;100255.78;;;23.11;49.59
34672;BME280;55835;52.096;21.060;2022-07-10T02:31:26;100256.78;;;23.10;49.54
34672;BME280;55835;52.096;21.060;2022-07-10T02:33:53;100253.09;;;23.11;49.68
34672;BME280;55835;52.096;21.060;2022-07-10T02:36:20;100255.78;;;23.11;49.56
34672;BME280;55835;52.096;21.060;2022-07-10T02:38:46;100244.03;;;23.12;49.51
34672;BME280;55835;52.096;21.060;2022-07-10T02:41:13;100252.09;;;23.12;49.43
34672;BME280;55835;52.096;21.060;2022-07-10T02:43:40;100248.94;;;23.08;49.57
34672;BME280;55835;52.096;21.060;2022-07-10T02:46:08;100242.53;;;23.09;49.40
34672;BME280;55835;52.096;21.060;2022-07-10T02:48:35;100240.69;;;23.10;49.15
34672;BME280;55835;52.096;21.060;2022-07-10T02:51:01;100248.72;;;23.10;49.72
34672;BME280;55835;52.096;21.060;2022-07-10T02:53:28;100241.53;;;23.10;49.34
34672;BME280;55835;52.096;21.060;2022-07-10T02:55:56;100243.34;;;23.10;49.78
34672;BME280;55835;52.096;21.060;2022-07-10T02:58:23;100240.88;;;23.08;49.37
34672;BME280;55835;52.096;21.060;2022-07-10T03:00:51;100239.03;;;23.09;49.73
34672;BME280;55835;52.096;21.060;2022-07-10T03:03:19;100248.09;;;23.08;49.54
34672;BME280;55835;52.096;21.060;2022-07-10T03:05:46;100243.56;;;23.08;49.56
34672;BME280;55835;52.096;21.060;2022-07-10T03:08:13;100245.22;;;23.09;49.64
34672;BME280;55835;52.096;21.060;2022-07-10T03:10:40;100236.34;;;23.09;49.58
34672;BME280;55835;52.096;21.060;2022-07-10T03:13:07;100241.06;;;23.07;49.45
34672;BME280;55835;52.096;21.060;2022-07-10T03:15:34;100231.97;;;23.08;49.58
34672;BME280;55835;52.096;21.060;2022-07-10T03:18:00;100228.09;;;23.10;49.84
34672;BME280;55835;52.096;21.060;2022-07-10T03:20:29;100228.28;;;23.09;49.51
34672;BME280;55835;52.096;21.060;2022-07-10T03:22:55;100230.31;;;23.07;49.68
34672;BME280;55835;52.096;21.060;2022-07-10T03:25:22;100232.28;;;23.05;49.66
34672;BME280;55835;52.096;21.060;2022-07-10T03:27:49;100240.19;;;23.06;49.83
34672;BME280;55835;52.096;21.060;2022-07-10T03:30:16;100242.06;;;23.06;49.95
34672;BME280;55835;52.096;21.060;2022-07-10T03:32:42;100241.06;;;23.07;49.83
34672;BME280;55835;52.096;21.060;2022-07-10T03:35:09;100245.41;;;23.08;49.67
34672;BME280;55835;52.096;21.060;2022-07-10T03:37:37;100243.88;;;23.05;49.87
34672;BME280;55835;52.096;21.060;2022-07-10T03:40:04;100241.38;;;23.04;50.14
34672;BME280;55835;52.096;21.060;2022-07-10T03:42:31;100248.41;;;23.05;49.81
34672;BME280;55835;52.096;21.060;2022-07-10T03:44:58;100244.88;;;23.04;49.66
34672;BME280;55835;52.096;21.060;2022-07-10T03:47:24;100251.09;;;23.05;49.79
34672;BME280;55835;52.096;21.060;2022-07-10T03:49:51;100245.41;;;23.08;49.68
34672;BME280;55835;52.096;21.060;2022-07-10T03:52:18;100248.25;;;23.06;49.96
34672;BME280;55835;52.096;21.060;2022-07-10T03:54:46;100240.19;;;23.06;50.15
34672;BME280;55835;52.096;21.060;2022-07-10T03:57:13;100241.06;;;23.07;49.87
34672;BME280;55835;52.096;21.060;2022-07-10T03:59:57;100236.00;;;23.04;49.88
34672;BME280;55835;52.096;21.060;2022-07-10T04:02:23;100242.19;;;23.04;49.83
34672;BME280;55835;52.096;21.060;2022-07-10T04:04:50;100236.84;;;23.04;50.24
34672;BME280;55835;52.096;21.060;2022-07-10T04:07:17;100242.06;;;23.06;50.35
34672;BME280;55835;52.096;21.060;2022-07-10T04:09:43;100242.19;;;23.04;49.95
34672;BME280;55835;52.096;21.060;2022-07-10T04:12:11;100245.41;;;22.99;50.03
34672;BME280;55835;52.096;21.060;2022-07-10T04:14:38;100247.44;;;22.97;50.09
34672;BME280;55835;52.096;21.060;2022-07-10T04:17:05;100247.78;;;22.94;50.22
34672;BME280;55835;52.096;21.060;2022-07-10T04:19:32;100252.34;;;22.94;50.09
34672;BME280;55835;52.096;21.060;2022-07-10T04:21:59;100254.19;;;22.93;50.29
34672;BME280;55835;52.096;21.060;2022-07-10T04:24:25;100251.50;;;22.93;50.69
34672;BME280;55835;52.096;21.060;2022-07-10T04:26:52;100244.47;;;22.92;50.60
34672;BME280;55835;52.096;21.060;2022-07-10T04:29:20;100247.31;;;22.91;50.62
34672;BME280;55835;52.096;21.060;2022-07-10T04:31:48;100239.09;;;22.92;50.32
34672;BME280;55835;52.096;21.060;2022-07-10T04:34:14;100239.09;;;22.92;50.46
34672;BME280;55835;52.096;21.060;2022-07-10T04:36:41;100246.50;;;22.90;50.82
34672;BME280;55835;52.096;21.060;2022-07-10T04:39:08;100241.78;;;22.92;50.45
34672;BME280;55835;52.096;21.060;2022-07-10T04:41:34;100238.09;;;22.93;50.56
34672;BME280;55835;52.096;21.060;2022-07-10T04:44:01;100245.31;;;22.93;50.49
34672;BME280;55835;52.096;21.060;2022-07-10T04:46:29;100240.13;;;22.91;50.53
34672;BME280;55835;52.096;21.060;2022-07-10T04:48:56;100238.44;;;22.90;50.80
34672;BME280;55835;52.096;21.060;2022-07-10T04:51:22;100244.47;;;22.92;50.64
34672;BME280;55835;52.096;21.060;2022-07-10T04:53:49;100238.09;;;22.93;50.64
34672;BME280;55835;52.096;21.060;2022-07-10T04:56:16;100235.75;;;22.90;50.50
34672;BME280;55835;52.096;21.060;2022-07-10T04:58:43;100239.28;;;22.91;50.47
34672;BME280;55835;52.096;21.060;2022-07-10T05:01:09;100235.75;;;22.90;50.73
34672;BME280;55835;52.096;21.060;2022-07-10T05:03:37;100235.75;;;22.90;50.29
34672;BME280;55835;52.096;21.060;2022-07-10T05:06:04;100234.06;;;22.89;50.53
34672;BME280;55835;52.096;21.060;2022-07-10T05:08:31;100238.63;;;22.89;50.39
34672;BME280;55835;52.096;21.060;2022-07-10T05:10:58;100239.44;;;22.89;50.79
34672;BME280;55835;52.096;21.060;2022-07-10T05:13:24;100236.75;;;22.89;50.54
34672;BME280;55835;52.096;21.060;2022-07-10T05:15:51;100236.75;;;22.89;50.27
34672;BME280;55835;52.096;21.060;2022-07-10T05:18:18;100225.00;;;22.90;50.46
34672;BME280;55835;52.096;21.060;2022-07-10T05:20:46;100237.44;;;22.91;50.62
34672;BME280;55835;52.096;21.060;2022-07-10T05:23:15;100231.38;;;22.89;50.48
34672;BME280;55835;52.096;21.060;2022-07-10T05:25:42;100225.00;;;22.90;50.28
34672;BME280;55835;52.096;21.060;2022-07-10T05:28:08;100228.69;;;22.89;50.59
34672;BME280;55835;52.096;21.060;2022-07-10T05:30:35;100233.91;;;22.91;50.35
34672;BME280;55835;52.096;21.060;2022-07-10T05:33:02;100227.88;;;22.89;50.14
34672;BME280;55835;52.096;21.060;2022-07-10T05:35:28;100227.06;;;22.88;50.23
34672;BME280;55835;52.096;21.060;2022-07-10T05:37:56;100223.53;;;22.88;50.04
34672;BME280;55835;52.096;21.060;2022-07-10T05:40:23;100219.00;;;22.88;50.46
34672;BME280;55835;52.096;21.060;2022-07-10T05:42:50;100233.25;;;22.89;50.41
34672;BME280;55835;52.096;21.060;2022-07-10T05:45:18;100231.38;;;22.89;50.34
34672;BME280;55835;52.096;21.060;2022-07-10T05:47:44;100229.72;;;22.88;50.05
34672;BME280;55835;52.096;21.060;2022-07-10T05:50:11;100227.06;;;22.88;50.04
34672;BME280;55835;52.096;21.060;2022-07-10T05:52:38;100220.00;;;22.87;50.03
34672;BME280;55835;52.096;21.060;2022-07-10T05:55:06;100230.56;;;22.89;50.08
34672;BME280;55835;52.096;21.060;2022-07-10T05:57:34;100228.69;;;22.89;49.87
34672;BME280;55835;52.096;21.060;2022-07-10T06:00:01;100224.19;;;22.90;49.92
34672;BME280;55835;52.096;21.060;2022-07-10T06:02:29;100231.09;;;22.84;49.97
34672;BME280;55835;52.096;21.060;2022-07-10T06:04:55;100226.09;;;22.81;50.01
34672;BME280;55835;52.096;21.060;2022-07-10T06:07:22;100232.28;;;22.81;50.41
34672;BME280;55835;52.096;21.060;2022-07-10T06:09:49;100231.47;;;22.81;49.98
34672;BME280;55835;52.096;21.060;2022-07-10T06:12:17;100220.72;;;22.81;50.30
34672;BME280;55835;52.096;21.060;2022-07-10T06:14:44;100229.78;;;22.80;50.47
34672;BME280;55835;52.096;21.060;2022-07-10T06:17:10;100224.25;;;22.81;50.42
34672;BME280;55835;52.096;21.060;2022-07-10T06:19:37;100215.19;;;22.83;50.09
34672;BME280;55835;52.096;21.060;2022-07-10T06:22:04;100216.00;;;22.83;49.96
34672;BME280;55835;52.096;21.060;2022-07-10T06:24:48;100215.34;;;22.81;50.26
34672;BME280;55835;52.096;21.060;2022-07-10T06:27:16;100217.19;;;22.80;50.44
34672;BME280;55835;52.096;21.060;2022-07-10T06:29:43;100215.34;;;22.81;50.86
34672;BME280;55835;52.096;21.060;2022-07-10T06:32:10;100214.97;;;22.84;50.90
34672;BME280;55835;52.096;21.060;2022-07-10T06:34:36;100218.34;;;22.86;50.66
34672;BME280;55835;52.096;21.060;2022-07-10T06:37:04;100218.34;;;22.86;50.15
34672;BME280;55835;52.096;21.060;2022-07-10T06:39:32;100222.03;;;22.85;50.33
34672;BME280;55835;52.096;21.060;2022-07-10T06:42:00;100214.63;;;22.87;50.48
34672;BME280;55835;52.096;21.060;2022-07-10T06:44:28;100222.34;;;22.90;50.03
34672;BME280;55835;52.096;21.060;2022-07-10T06:46:55;100220.00;;;22.87;49.97
34672;BME280;55835;52.096;21.060;2022-07-10T06:49:35;100221.69;;;22.88;50.46
34672;BME280;55835;52.096;21.060;2022-07-10T06:52:02;100217.97;;;22.89;49.71
34672;BME280;55835;52.096;21.060;2022-07-10T06:54:29;100220.47;;;22.91;50.17
34672;BME280;55835;52.096;21.060;2022-07-10T06:56:56;100228.69;;;22.89;49.90
34672;BME280;55835;52.096;21.060;2022-07-10T06:59:23;100207.22;;;22.89;49.97
34672;BME280;55835;52.096;21.060;2022-07-10T07:01:51;100214.28;;;22.90;49.99
34672;BME280;55835;52.096;21.060;2022-07-10T07:04:18;100210.59;;;22.91;49.78
34672;BME280;55835;52.096;21.060;2022-07-10T07:06:44;100216.78;;;22.92;50.04
34672;BME280;55835;52.096;21.060;2022-07-10T07:09:12;100205.22;;;22.91;49.84
34672;BME280;55835;52.096;21.060;2022-07-10T07:11:38;100218.47;;;22.93;49.78
34672;BME280;55835;52.096;21.060;2022-07-10T07:14:05;100216.59;;;22.93;49.58
34672;BME280;55835;52.096;21.060;2022-07-10T07:16:32;100205.88;;;22.93;49.72
34672;BME280;55835;52.096;21.060;2022-07-10T07:19:08;100203.19;;;22.93;49.75
34672;BME280;55835;52.096;21.060;2022-07-10T07:21:36;100206.88;;;22.92;49.35
34672;BME280;55835;52.096;21.060;2022-07-10T07:24:17;100198.63;;;22.94;49.22
34672;BME280;55835;52.096;21.060;2022-07-10T07:26:44;100203.19;;;22.93;49.61
34672;BME280;55835;52.096;21.060;2022-07-10T07:29:12;100205.69;;;22.95;49.25
34672;BME280;55835;52.096;21.060;2022-07-10T07:31:39;100208.19;;;22.96;49.37
34672;BME280;55835;52.096;21.060;2022-07-10T07:34:07;100204.47;;;22.97;48.99
34672;BME280;55835;52.096;21.060;2022-07-10T07:36:34;100205.13;;;22.99;49.47
34672;BME280;55835;52.096;21.060;2022-07-10T07:39:01;100199.09;;;23.06;48.98
34672;BME280;55835;52.096;21.060;2022-07-10T07:41:27;100192.72;;;23.07;49.14
34672;BME280;55835;52.096;21.060;2022-07-10T07:43:54;100190.31;;;23.12;49.14
34672;BME280;55835;52.096;21.060;2022-07-10T07:46:21;100193.31;;;23.17;49.01
34672;BME280;55835;52.096;21.060;2022-07-10T07:48:49;100194.31;;;23.16;48.96
34672;BME280;55835;52.096;21.060;2022-07-10T07:51:17;100194.31;;;23.16;48.38
34672;BME280;55835;52.096;21.060;2022-07-10T07:53:44;100187.38;;;23.22;48.72
34672;BME280;55835;52.096;21.060;2022-07-10T07:56:11;100187.38;;;23.22;48.40
34672;BME280;55835;52.096;21.060;2022-07-10T07:58:37;100187.53;;;23.20;48.59
34672;BME280;55835;52.096;21.060;2022-07-10T08:01:04;100181.81;;;23.23;48.39
34672;BME280;55835;52.096;21.060;2022-07-10T08:03:31;100186.81;;;23.26;48.37
34672;BME280;55835;52.096;21.060;2022-07-10T08:05:58;100187.75;;;23.33;48.46
34672;BME280;55835;52.096;21.060;2022-07-10T08:08:26;100179.88;;;23.32;48.37
34672;BME280;55835;52.096;21.060;2022-07-10T08:10:52;100186.94;;;23.33;47.73
34672;BME280;55835;52.096;21.060;2022-07-10T08:13:19;100186.13;;;23.32;47.54
34672;BME280;55835;52.096;21.060;2022-07-10T08:15:46;100190.63;;;23.32;48.11
34672;BME280;55835;52.096;21.060;2022-07-10T08:18:13;100186.47;;;23.29;47.63
34672;BME280;55835;52.096;21.060;2022-07-10T08:20:40;100195.72;;;23.27;47.64
34672;BME280;55835;52.096;21.060;2022-07-10T08:23:07;100201.25;;;23.25;47.56
34672;BME280;55835;52.096;21.060;2022-07-10T08:25:35;100204.44;;;23.29;47.87
34672;BME280;55835;52.096;21.060;2022-07-10T08:28:02;100197.56;;;23.26;47.53
34672;BME280;55835;52.096;21.060;2022-07-10T08:30:29;100200.44;;;23.25;47.40
34672;BME280;55835;52.096;21.060;2022-07-10T08:32:56;100198.97;;;23.22;47.30
34672;BME280;55835;52.096;21.060;2022-07-10T08:35:23;100193.78;;;23.21;46.63
34672;BME280;55835;52.096;21.060;2022-07-10T08:37:49;100186.38;;;23.23;47.04
34672;BME280;55835;52.096;21.060;2022-07-10T08:40:16;100190.72;;;23.24;46.60
34672;BME280;55835;52.096;21.060;2022-07-10T08:42:45;100187.66;;;23.27;46.71
34672;BME280;55835;52.096;21.060;2022-07-10T08:45:13;100190.81;;;23.30;46.64
34672;BME280;55835;52.096;21.060;2022-07-10T08:47:40;100188.13;;;23.30;46.62
34672;BME280;55835;52.096;21.060;2022-07-10T08:50:16;100178.34;;;23.37;46.27
34672;BME280;55835;52.096;21.060;2022-07-10T08:52:44;100177.22;;;23.47;46.21
34672;BME280;55835;52.096;21.060;2022-07-10T08:55:16;100171.13;;;23.53;46.87
34672;BME280;55835;52.096;21.060;2022-07-10T08:57:45;100171.78;;;23.55;46.34
34672;BME280;55835;52.096;21.060;2022-07-10T09:00:12;100175.66;;;23.52;47.08
34672;BME280;55835;52.096;21.060;2022-07-10T09:02:39;100181.22;;;23.51;47.18
34672;BME280;55835;52.096;21.060;2022-07-10T09:05:06;100176.63;;;23.60;47.53
34672;BME280;55835;52.096;21.060;2022-07-10T09:07:34;100176.63;;;23.60;46.82
34672;BME280;55835;52.096;21.060;2022-07-10T09:10:06;100192.25;;;23.56;47.30
34672;BME280;55835;52.096;21.060;2022-07-10T09:12:50;100193.22;;;23.63;47.75
34672;BME280;55835;52.096;21.060;2022-07-10T09:15:19;100195.72;;;23.65;47.67
34672;BME280;55835;52.096;21.060;2022-07-10T09:17:54;100197.19;;;23.67;47.74
34672;BME280;55835;52.096;21.060;2022-07-10T09:20:29;100191.06;;;23.59;47.09
34672;BME280;55835;52.096;21.060;2022-07-10T09:22:57;100190.94;;;23.52;47.66
34672;BME280;55835;52.096;21.060;2022-07-10T09:25:31;100184.66;;;23.45;47.11
34672;BME280;55835;52.096;21.060;2022-07-10T09:28:01;100181.31;;;23.43;46.78
34672;BME280;55835;52.096;21.060;2022-07-10T09:30:32;100185.00;;;23.42;46.96
34672;BME280;55835;52.096;21.060;2022-07-10T09:33:14;100190.75;;;23.38;47.13
34672;BME280;55835;52.096;21.060;2022-07-10T09:35:55;100179.16;;;23.38;46.84
34672;BME280;55835;52.096;21.060;2022-07-10T09:38:53;100163.22;;;23.36;46.74
34672;BME280;55835;52.096;21.060;2022-07-10T09:41:24;100168.41;;;23.38;46.63
34672;BME280;55835;52.096;21.060;2022-07-10T09:43:54;100174.81;;;23.37;46.79
34672;BME280;55835;52.096;21.060;2022-07-10T09:46:23;100174.63;;;23.38;46.80
34672;BME280;55835;52.096;21.060;2022-07-10T09:49:01;100172.09;;;23.37;46.76
34672;BME280;55835;52.096;21.060;2022-07-10T09:51:30;100168.41;;;23.38;46.76
34672;BME280;55835;52.096;21.060;2022-07-10T09:54:00;100168.41;;;23.38;46.41
34672;BME280;55835;52.096;21.060;2022-07-10T09:56:26;100160.81;;;23.42;46.72
34672;BME280;55835;52.096;21.060;2022-07-10T09:58:59;100165.19;;;23.43;46.50
34672;BME280;55835;52.096;21.060;2022-07-10T10:01:27;100159.63;;;23.44;46.56
34672;BME280;55835;52.096;21.060;2022-07-10T10:03:55;100149.34;;;23.48;46.10
34672;BME280;55835;52.096;21.060;2022-07-10T10:06:26;100138.31;;;23.43;45.98
34672;BME280;55835;52.096;21.060;2022-07-10T10:08:57;100154.63;;;23.41;46.87
34672;BME280;55835;52.096;21.060;2022-07-10T10:11:27;100157.50;;;23.40;46.83
34672;BME280;55835;52.096;21.060;2022-07-10T10:13:55;100154.16;;;23.37;47.48
34672;BME280;55835;52.096;21.060;2022-07-10T10:16:23;100174.63;;;23.38;47.99
34672;BME280;55835;52.096;21.060;2022-07-10T10:18:51;100169.25;;;23.38;47.84
34672;BME280;55835;52.096;21.060;2022-07-10T10:21:37;100168.25;;;23.40;48.28
34672;BME280;55835;52.096;21.060;2022-07-10T10:24:04;100168.25;;;23.40;48.33
34672;BME280;55835;52.096;21.060;2022-07-10T10:26:32;100165.56;;;23.40;48.04
34672;BME280;55835;52.096;21.060;2022-07-10T10:29:01;100170.28;;;23.37;48.66
34672;BME280;55835;52.096;21.060;2022-07-10T10:31:30;100185.53;;;23.37;48.80
34672;BME280;55835;52.096;21.060;2022-07-10T10:33:58;100182.03;;;23.36;48.87
34672;BME280;55835;52.096;21.060;2022-07-10T10:36:47;100186.59;;;23.36;48.66
34672;BME280;55835;52.096;21.060;2022-07-10T10:39:15;100196.47;;;23.35;48.87
34672;BME280;55835;52.096;21.060;2022-07-10T10:41:48;100199.16;;;23.35;48.26
34672;BME280;55835;52.096;21.060;2022-07-10T10:44:26;100198.50;;;23.33;48.59
34672;BME280;55835;52.096;21.060;2022-07-10T10:47:02;100190.44;;;23.33;48.37
34672;BME280;55835;52.096;21.060;2022-07-10T10:49:51;100183.44;;;23.32;48.48
34672;BME280;55835;52.096;21.060;2022-07-10T10:52:18;100186.13;;;23.32;48.25
34672;BME280;55835;52.096;21.060;2022-07-10T10:55:05;100183.44;;;23.32;48.22
34672;BME280;55835;52.096;21.060;2022-07-10T10:57:38;100179.72;;;23.33;49.12
34672;BME280;55835;52.096;21.060;2022-07-10T11:03:15;100166.44;;;23.32;48.72
34672;BME280;55835;52.096;21.060;2022-07-10T11:05:43;100159.25;;;23.32;48.98
34672;BME280;55835;52.096;21.060;2022-07-10T11:08:10;100166.28;;;23.33;48.96
34672;BME280;55835;52.096;21.060;2022-07-10T11:10:38;100159.25;;;23.32;49.23
34672;BME280;55835;52.096;21.060;2022-07-10T11:13:06;100159.91;;;23.34;49.44
34672;BME280;55835;52.096;21.060;2022-07-10T11:15:36;100158.84;;;23.35;49.33
34672;BME280;55835;52.096;21.060;2022-07-10T11:18:08;100150.16;;;23.33;48.68
34672;BME280;55835;52.096;21.060;2022-07-10T11:20:36;100154.34;;;23.36;48.84
34672;BME280;55835;52.096;21.060;2022-07-10T11:23:29;100149.78;;;23.36;48.71
34672;BME280;55835;52.096;21.060;2022-07-10T11:26:03;100151.28;;;23.39;48.58
34672;BME280;55835;52.096;21.060;2022-07-10T11:28:45;100151.75;;;23.43;48.54
34672;BME280;55835;52.096;21.060;2022-07-10T11:31:15;100149.06;;;23.43;48.97
34672;BME280;55835;52.096;21.060;2022-07-10T11:33:42;100145.34;;;23.44;48.33
34672;BME280;55835;52.096;21.060;2022-07-10T11:36:10;100137.94;;;23.46;48.34
34672;BME280;55835;52.096;21.060;2022-07-10T11:38:39;100145.34;;;23.44;48.07
34672;BME280;55835;52.096;21.060;2022-07-10T11:41:12;100145.81;;;23.47;48.08
34672;BME280;55835;52.096;21.060;2022-07-10T11:43:45;100141.75;;;23.51;47.49
34672;BME280;55835;52.096;21.060;2022-07-10T11:46:12;100140.06;;;23.50;47.18
34672;BME280;55835;52.096;21.060;2022-07-10T11:48:41;100137.56;;;23.49;47.20
34672;BME280;55835;52.096;21.060;2022-07-10T11:51:16;100139.25;;;23.50;47.05
34672;BME280;55835;52.096;21.060;2022-07-10T11:53:52;100134.34;;;23.53;47.35
34672;BME280;55835;52.096;21.060;2022-07-10T11:56:19;100139.91;;;23.52;47.53
34672;BME280;55835;52.096;21.060;2022-07-10T11:58:53;100133.88;;;23.50;47.23
34672;BME280;55835;52.096;21.060;2022-07-10T12:01:20;100136.19;;;23.53;47.17
34672;BME280;55835;52.096;21.060;2022-07-10T12:03:55;100130.44;;;23.56;46.74
34672;BME280;55835;52.096;21.060;2022-07-10T12:06:23;100127.09;;;23.54;46.31
34672;BME280;55835;52.096;21.060;2022-07-10T12:08:51;100137.47;;;23.57;46.82
34672;BME280;55835;52.096;21.060;2022-07-10T12:11:18;100131.56;;;23.62;46.50
34672;BME280;55835;52.096;21.060;2022-07-10T12:13:46;100128.69;;;23.63;45.81
34672;BME280;55835;52.096;21.060;2022-07-10T12:16:14;100146.09;;;23.67;45.71
34672;BME280;55835;52.096;21.060;2022-07-10T12:18:41;100139.50;;;23.70;45.40
34672;BME280;55835;52.096;21.060;2022-07-10T12:21:10;100144.69;;;23.71;44.78
34672;BME280;55835;52.096;21.060;2022-07-10T12:23:38;100146.38;;;23.72;44.79
34672;BME280;55835;52.096;21.060;2022-07-10T12:26:08;100147.03;;;23.74;44.22
34672;BME280;55835;52.096;21.060;2022-07-10T12:28:49;100143.69;;;23.72;44.79
34672;BME280;55835;52.096;21.060;2022-07-10T12:31:23;100145.38;;;23.73;45.13
34672;BME280;55835;52.096;21.060;2022-07-10T12:33:51;100140.75;;;23.82;44.63
34672;BME280;55835;52.096;21.060;2022-07-10T12:36:21;100136.03;;;23.84;44.98
34672;BME280;55835;52.096;21.060;2022-07-10T12:38:55;100131.09;;;23.88;44.94
34672;BME280;55835;52.096;21.060;2022-07-10T12:41:23;100133.25;;;23.92;45.29
34672;BME280;55835;52.096;21.060;2022-07-10T12:43:51;100145.75;;;24.00;45.17
34672;BME280;55835;52.096;21.060;2022-07-10T12:46:19;100145.00;;;24.06;45.23
34672;BME280;55835;52.096;21.060;2022-07-10T12:49:03;100142.31;;;24.06;45.00
34672;BME280;55835;52.096;21.060;2022-07-10T12:51:33;100143.88;;;24.01;45.19